sensor_id;sensor_type;location;lat;lon;timestamp;temperature;humidity
21246;DHT22;10781;50.928;4.440;2024-03-23T00:54:33;10.00;99.90
21246;DHT22;10781;50.928;4.440;2024-03-23T00:56:59;9.90;99.90
21246;DHT22;10781;50.928;4.440;2024-03-23T00:59:25;9.80;99.90
21246;DHT22;10781;50.928;4.440;2024-03-23T01:01:54;9.90;99.90
21246;DHT22;10781;50.928;4.440;2024-03-23T01:04:19;10.00;99.90
21246;DHT22;10781;50.928;4.440;2024-03-23T01:06:45;10.10;99.90
21246;DHT22;10781;50.928;4.440;2024-03-23T01:09:11;10.20;99.90
21246;DHT22;10781;50.928;4.440;2024-03-23T01:11:37;10.20;99.90
21246;DHT22;10781;50.928;4.440;2024-03-23T01:14:03;10.20;99.90
21246;DHT22;10781;50.928;4.440;2024-03-23T01:16:28;10.20;99.90
21246;DHT22;10781;50.928;4.440;2024-03-23T01:18:54;9.90;99.90
21246;DHT22;10781;50.928;4.440;2024-03-23T01:21:20;9.90;99.90
21246;DHT22;10781;50.928;4.440;2024-03-23T01:23:45;10.10;99.90
21246;DHT22;10781;50.928;4.440;2024-03-23T01:26:11;10.00;99.90
21246;DHT22;10781;50.928;4.440;2024-03-23T01:28:36;10.30;99.90
21246;DHT22;10781;50.928;4.440;2024-03-23T01:31:03;10.30;99.90
21246;DHT22;10781;50.928;4.440;2024-03-23T01:33:29;10.10;99.90
21246;DHT22;10781;50.928;4.440;2024-03-23T01:35:54;10.10;99.90
21246;DHT22;10781;50.928;4.440;2024-03-23T01:38:20;9.90;99.90
21246;DHT22;10781;50.928;4.440;2024-03-23T01:40:45;9.50;99.90
21246;DHT22;10781;50.928;4.440;2024-03-23T01:43:11;9.40;99.90
21246;DHT22;10781;50.928;4.440;2024-03-23T01:45:37;9.40;99.90
21246;DHT22;10781;50.928;4.440;2024-03-23T01:48:03;9.50;99.90
21246;DHT22;10781;50.928;4.440;2024-03-23T01:50:31;9.40;99.90
21246;DHT22;10781;50.928;4.440;2024-03-23T01:53:00;9.40;99.90
21246;DHT22;10781;50.928;4.440;2024-03-23T01:55:27;9.30;99.90
21246;DHT22;10781;50.928;4.440;2024-03-23T01:57:56;9.30;99.90
21246;DHT22;10781;50.928;4.440;2024-03-23T02:00:22;9.40;99.90
21246;DHT22;10781;50.928;4.440;2024-03-23T02:02:48;9.30;99.90
21246;DHT22;10781;50.928;4.440;2024-03-23T02:05:14;9.10;99.90
21246;DHT22;10781;50.928;4.440;2024-03-23T02:07:41;9.00;99.90
21246;DHT22;10781;50.928;4.440;2024-03-23T02:10:07;8.80;99.90
21246;DHT22;10781;50.928;4.440;2024-03-23T02:12:35;8.90;99.90
21246;DHT22;10781;50.928;4.440;2024-03-23T02:15:01;9.00;99.90
21246;DHT22;10781;50.928;4.440;2024-03-23T02:17:27;8.90;99.90
21246;DHT22;10781;50.928;4.440;2024-03-23T02:19:53;8.90;99.90
21246;DHT22;10781;50.928;4.440;2024-03-23T02:22:18;8.90;99.90
21246;DHT22;10781;50.928;4.440;2024-03-23T02:24:44;8.90;99.90
21246;DHT22;10781;50.928;4.440;2024-03-23T02:27:10;9.00;99.90
21246;DHT22;10781;50.928;4.440;2024-03-23T02:29:35;9.10;99.90
21246;DHT22;10781;50.928;4.440;2024-03-23T02:32:01;8.90;99.90
21246;DHT22;10781;50.928;4.440;2024-03-23T02:34:26;8.80;99.90
21246;DHT22;10781;50.928;4.440;2024-03-23T02:36:52;8.80;99.90
21246;DHT22;10781;50.928;4.440;2024-03-23T02:39:18;8.80;99.90
21246;DHT22;10781;50.928;4.440;2024-03-23T02:41:43;8.70;99.90
21246;DHT22;10781;50.928;4.440;2024-03-23T02:44:09;8.80;99.90
21246;DHT22;10781;50.928;4.440;2024-03-23T02:46:37;8.80;99.90
21246;DHT22;10781;50.928;4.440;2024-03-23T02:49:03;8.80;99.90
21246;DHT22;10781;50.928;4.440;2024-03-23T02:51:30;9.00;99.90
21246;DHT22;10781;50.928;4.440;2024-03-23T02:53:55;9.00;99.90
21246;DHT22;10781;50.928;4.440;2024-03-23T02:56:21;9.10;99.90
21246;DHT22;10781;50.928;4.440;2024-03-23T02:58:47;9.10;99.90
21246;DHT22;10781;50.928;4.440;2024-03-23T03:01:12;9.10;99.90
21246;DHT22;10781;50.928;4.440;2024-03-23T03:03:38;9.20;99.90
21246;DHT22;10781;50.928;4.440;2024-03-23T03:06:04;9.30;99.90
21246;DHT22;10781;50.928;4.440;2024-03-23T03:08:29;9.40;99.90
21246;DHT22;10781;50.928;4.440;2024-03-23T03:10:55;9.20;99.90
21246;DHT22;10781;50.928;4.440;2024-03-23T03:13:21;9.20;99.90
21246;DHT22;10781;50.928;4.440;2024-03-23T03:15:46;9.20;99.90
21246;DHT22;10781;50.928;4.440;2024-03-23T03:18:12;9.10;99.90
21246;DHT22;10781;50.928;4.440;2024-03-23T03:20:41;9.10;99.90
21246;DHT22;10781;50.928;4.440;2024-03-23T03:23:07;9.00;99.90
21246;DHT22;10781;50.928;4.440;2024-03-23T03:25:33;9.10;99.90
21246;DHT22;10781;50.928;4.440;2024-03-23T03:27:59;9.20;99.90
21246;DHT22;10781;50.928;4.440;2024-03-23T03:30:24;9.40;99.90
21246;DHT22;10781;50.928;4.440;2024-03-23T03:32:53;9.50;99.90
21246;DHT22;10781;50.928;4.440;2024-03-23T03:35:18;9.10;99.90
21246;DHT22;10781;50.928;4.440;2024-03-23T03:37:44;9.20;99.90
21246;DHT22;10781;50.928;4.440;2024-03-23T03:40:10;9.20;99.90
21246;DHT22;10781;50.928;4.440;2024-03-23T03:42:36;9.10;99.90
21246;DHT22;10781;50.928;4.440;2024-03-23T03:45:02;9.10;99.90
21246;DHT22;10781;50.928;4.440;2024-03-23T03:47:30;9.20;99.90
21246;DHT22;10781;50.928;4.440;2024-03-23T03:49:55;9.20;99.90
21246;DHT22;10781;50.928;4.440;2024-03-23T03:52:21;9.20;99.90
21246;DHT22;10781;50.928;4.440;2024-03-23T03:54:46;9.10;99.90
21246;DHT22;10781;50.928;4.440;2024-03-23T03:57:12;9.00;99.90
21246;DHT22;10781;50.928;4.440;2024-03-23T03:59:37;8.70;99.90
21246;DHT22;10781;50.928;4.440;2024-03-23T04:02:03;8.60;99.90
21246;DHT22;10781;50.928;4.440;2024-03-23T04:04:29;8.50;99.90
21246;DHT22;10781;50.928;4.440;2024-03-23T04:07:01;8.40;99.90
21246;DHT22;10781;50.928;4.440;2024-03-23T04:09:27;8.40;99.90
21246;DHT22;10781;50.928;4.440;2024-03-23T04:11:53;8.50;99.90
21246;DHT22;10781;50.928;4.440;2024-03-23T04:14:19;8.60;99.90
21246;DHT22;10781;50.928;4.440;2024-03-23T04:16:45;8.60;99.90
21246;DHT22;10781;50.928;4.440;2024-03-23T04:19:11;8.70;99.90
21246;DHT22;10781;50.928;4.440;2024-03-23T04:21:37;8.70;99.90
21246;DHT22;10781;50.928;4.440;2024-03-23T04:24:04;8.60;99.90
21246;DHT22;10781;50.928;4.440;2024-03-23T04:26:29;8.60;99.90
21246;DHT22;10781;50.928;4.440;2024-03-23T04:28:55;8.60;99.90
21246;DHT22;10781;50.928;4.440;2024-03-23T04:31:20;8.40;99.90
21246;DHT22;10781;50.928;4.440;2024-03-23T04:33:47;8.20;99.90
21246;DHT22;10781;50.928;4.440;2024-03-23T04:36:12;8.10;99.90
21246;DHT22;10781;50.928;4.440;2024-03-23T04:38:38;8.10;99.90
21246;DHT22;10781;50.928;4.440;2024-03-23T04:41:03;8.10;99.90
21246;DHT22;10781;50.928;4.440;2024-03-23T04:43:29;8.00;99.90
21246;DHT22;10781;50.928;4.440;2024-03-23T04:45:55;8.00;99.90
21246;DHT22;10781;50.928;4.440;2024-03-23T04:48:21;8.00;99.90
21246;DHT22;10781;50.928;4.440;2024-03-23T04:50:54;7.90;99.90
21246;DHT22;10781;50.928;4.440;2024-03-23T04:53:21;7.90;99.90
21246;DHT22;10781;50.928;4.440;2024-03-23T04:55:46;8.00;99.90
21246;DHT22;10781;50.928;4.440;2024-03-23T04:58:12;8.20;99.90
21246;DHT22;10781;50.928;4.440;2024-03-23T05:00:37;8.00;99.90
21246;DHT22;10781;50.928;4.440;2024-03-23T05:03:03;8.00;99.90
21246;DHT22;10781;50.928;4.440;2024-03-23T05:05:29;7.80;99.90
21246;DHT22;10781;50.928;4.440;2024-03-23T05:07:55;7.80;99.90
21246;DHT22;10781;50.928;4.440;2024-03-23T05:10:21;7.80;99.90
21246;DHT22;10781;50.928;4.440;2024-03-23T05:12:46;7.80;99.90
21246;DHT22;10781;50.928;4.440;2024-03-23T05:15:12;7.70;99.90
21246;DHT22;10781;50.928;4.440;2024-03-23T05:17:38;7.60;99.90
21246;DHT22;10781;50.928;4.440;2024-03-23T05:20:04;7.70;99.90
21246;DHT22;10781;50.928;4.440;2024-03-23T05:22:30;7.70;99.90
21246;DHT22;10781;50.928;4.440;2024-03-23T05:24:56;7.70;99.90
21246;DHT22;10781;50.928;4.440;2024-03-23T05:27:22;7.60;99.90
21246;DHT22;10781;50.928;4.440;2024-03-23T05:29:48;7.60;99.90
21246;DHT22;10781;50.928;4.440;2024-03-23T05:32:14;7.60;99.90
21246;DHT22;10781;50.928;4.440;2024-03-23T05:34:39;7.50;99.90
21246;DHT22;10781;50.928;4.440;2024-03-23T05:37:05;7.50;99.90
21246;DHT22;10781;50.928;4.440;2024-03-23T05:39:31;7.50;99.90
21246;DHT22;10781;50.928;4.440;2024-03-23T05:41:56;7.40;99.90
21246;DHT22;10781;50.928;4.440;2024-03-23T05:44:22;7.60;99.90
21246;DHT22;10781;50.928;4.440;2024-03-23T05:46:48;7.50;99.90
21246;DHT22;10781;50.928;4.440;2024-03-23T05:49:16;7.60;99.90
21246;DHT22;10781;50.928;4.440;2024-03-23T05:51:46;7.70;99.90
21246;DHT22;10781;50.928;4.440;2024-03-23T05:54:12;7.70;99.90
21246;DHT22;10781;50.928;4.440;2024-03-23T05:56:37;7.70;99.90
21246;DHT22;10781;50.928;4.440;2024-03-23T05:59:03;7.60;99.90
21246;DHT22;10781;50.928;4.440;2024-03-23T06:01:29;7.80;99.90
21246;DHT22;10781;50.928;4.440;2024-03-23T06:03:54;7.90;99.90
21246;DHT22;10781;50.928;4.440;2024-03-23T06:06:20;7.90;99.90
21246;DHT22;10781;50.928;4.440;2024-03-23T06:08:46;7.80;99.90
21246;DHT22;10781;50.928;4.440;2024-03-23T06:11:11;7.90;99.90
21246;DHT22;10781;50.928;4.440;2024-03-23T06:13:37;8.10;99.90
21246;DHT22;10781;50.928;4.440;2024-03-23T06:16:02;8.00;99.90
21246;DHT22;10781;50.928;4.440;2024-03-23T06:18:28;8.10;99.90
21246;DHT22;10781;50.928;4.440;2024-03-23T06:20:54;8.20;99.90
21246;DHT22;10781;50.928;4.440;2024-03-23T06:23:20;8.10;99.90
21246;DHT22;10781;50.928;4.440;2024-03-23T06:25:46;8.10;99.90
21246;DHT22;10781;50.928;4.440;2024-03-23T06:28:11;8.20;99.90
21246;DHT22;10781;50.928;4.440;2024-03-23T06:30:37;7.90;99.90
21246;DHT22;10781;50.928;4.440;2024-03-23T06:33:03;7.90;99.90
21246;DHT22;10781;50.928;4.440;2024-03-23T06:35:28;8.00;99.90
21246;DHT22;10781;50.928;4.440;2024-03-23T06:37:54;8.30;99.90
21246;DHT22;10781;50.928;4.440;2024-03-23T06:40:20;8.30;99.90
21246;DHT22;10781;50.928;4.440;2024-03-23T06:42:45;8.20;99.90
21246;DHT22;10781;50.928;4.440;2024-03-23T06:45:11;8.20;99.90
21246;DHT22;10781;50.928;4.440;2024-03-23T06:47:37;8.10;99.90
21246;DHT22;10781;50.928;4.440;2024-03-23T06:50:03;8.30;99.90
21246;DHT22;10781;50.928;4.440;2024-03-23T06:52:29;8.30;99.90
21246;DHT22;10781;50.928;4.440;2024-03-23T06:54:55;8.20;99.90
21246;DHT22;10781;50.928;4.440;2024-03-23T06:57:21;8.30;99.90
21246;DHT22;10781;50.928;4.440;2024-03-23T06:59:47;8.30;99.90
21246;DHT22;10781;50.928;4.440;2024-03-23T07:02:12;8.50;99.90
21246;DHT22;10781;50.928;4.440;2024-03-23T07:04:38;9.00;99.90
21246;DHT22;10781;50.928;4.440;2024-03-23T07:07:05;9.00;99.90
21246;DHT22;10781;50.928;4.440;2024-03-23T07:09:30;8.90;99.90
21246;DHT22;10781;50.928;4.440;2024-03-23T07:11:57;8.60;99.90
21246;DHT22;10781;50.928;4.440;2024-03-23T07:14:23;8.50;99.90
21246;DHT22;10781;50.928;4.440;2024-03-23T07:16:50;8.40;99.90
21246;DHT22;10781;50.928;4.440;2024-03-23T07:19:19;8.40;99.90
21246;DHT22;10781;50.928;4.440;2024-03-23T07:21:45;8.20;99.90
21246;DHT22;10781;50.928;4.440;2024-03-23T07:24:11;8.20;99.90
21246;DHT22;10781;50.928;4.440;2024-03-23T07:26:37;8.20;99.90
21246;DHT22;10781;50.928;4.440;2024-03-23T07:29:06;8.20;99.90
21246;DHT22;10781;50.928;4.440;2024-03-23T07:31:32;8.50;99.90
21246;DHT22;10781;50.928;4.440;2024-03-23T07:33:57;9.00;99.90
21246;DHT22;10781;50.928;4.440;2024-03-23T07:36:23;9.70;99.90
21246;DHT22;10781;50.928;4.440;2024-03-23T07:38:48;10.30;99.90
21246;DHT22;10781;50.928;4.440;2024-03-23T07:41:18;10.90;99.90
21246;DHT22;10781;50.928;4.440;2024-03-23T07:43:45;11.60;99.90
21246;DHT22;10781;50.928;4.440;2024-03-23T07:46:11;12.80;99.90
21246;DHT22;10781;50.928;4.440;2024-03-23T07:48:37;13.80;99.90
21246;DHT22;10781;50.928;4.440;2024-03-23T07:51:08;13.60;99.90
21246;DHT22;10781;50.928;4.440;2024-03-23T07:53:35;13.30;99.90
21246;DHT22;10781;50.928;4.440;2024-03-23T07:56:05;12.30;99.90
21246;DHT22;10781;50.928;4.440;2024-03-23T07:58:30;11.40;99.90
21246;DHT22;10781;50.928;4.440;2024-03-23T08:01:01;11.80;99.90
21246;DHT22;10781;50.928;4.440;2024-03-23T08:03:28;12.60;99.90
21246;DHT22;10781;50.928;4.440;2024-03-23T08:05:54;13.20;99.90
21246;DHT22;10781;50.928;4.440;2024-03-23T08:08:19;13.50;99.90
21246;DHT22;10781;50.928;4.440;2024-03-23T08:10:49;13.40;99.90
21246;DHT22;10781;50.928;4.440;2024-03-23T08:13:15;14.30;99.90
21246;DHT22;10781;50.928;4.440;2024-03-23T08:15:40;15.50;99.90
21246;DHT22;10781;50.928;4.440;2024-03-23T08:18:06;15.30;99.90
21246;DHT22;10781;50.928;4.440;2024-03-23T08:20:32;15.70;99.90
21246;DHT22;10781;50.928;4.440;2024-03-23T08:22:57;15.10;99.90
21246;DHT22;10781;50.928;4.440;2024-03-23T08:25:23;14.90;99.90
21246;DHT22;10781;50.928;4.440;2024-03-23T08:27:49;14.70;99.90
21246;DHT22;10781;50.928;4.440;2024-03-23T08:30:14;14.30;99.90
21246;DHT22;10781;50.928;4.440;2024-03-23T08:32:41;12.80;99.90
21246;DHT22;10781;50.928;4.440;2024-03-23T08:35:07;11.80;99.90
21246;DHT22;10781;50.928;4.440;2024-03-23T08:37:33;11.80;99.90
21246;DHT22;10781;50.928;4.440;2024-03-23T08:39:59;12.30;99.90
21246;DHT22;10781;50.928;4.440;2024-03-23T08:42:24;12.00;99.90
21246;DHT22;10781;50.928;4.440;2024-03-23T08:44:50;11.50;99.90
21246;DHT22;10781;50.928;4.440;2024-03-23T08:47:16;11.20;99.90
21246;DHT22;10781;50.928;4.440;2024-03-23T08:49:41;11.20;99.90
21246;DHT22;10781;50.928;4.440;2024-03-23T08:52:07;12.20;99.90
21246;DHT22;10781;50.928;4.440;2024-03-23T08:54:33;13.10;99.90
21246;DHT22;10781;50.928;4.440;2024-03-23T08:56:59;12.90;99.90
21246;DHT22;10781;50.928;4.440;2024-03-23T08:59:25;12.70;99.90
21246;DHT22;10781;50.928;4.440;2024-03-23T09:01:51;13.40;99.90
21246;DHT22;10781;50.928;4.440;2024-03-23T09:04:16;14.40;99.90
21246;DHT22;10781;50.928;4.440;2024-03-23T09:06:42;15.40;99.90
21246;DHT22;10781;50.928;4.440;2024-03-23T09:09:08;15.80;99.90
21246;DHT22;10781;50.928;4.440;2024-03-23T09:11:34;15.90;99.90
21246;DHT22;10781;50.928;4.440;2024-03-23T09:13:59;15.60;99.90
21246;DHT22;10781;50.928;4.440;2024-03-23T09:16:25;16.10;99.90
21246;DHT22;10781;50.928;4.440;2024-03-23T09:18:52;16.20;99.90
21246;DHT22;10781;50.928;4.440;2024-03-23T09:21:17;16.80;99.90
21246;DHT22;10781;50.928;4.440;2024-03-23T09:23:44;17.70;99.90
21246;DHT22;10781;50.928;4.440;2024-03-23T09:26:10;17.10;99.90
21246;DHT22;10781;50.928;4.440;2024-03-23T09:28:36;16.00;99.90
21246;DHT22;10781;50.928;4.440;2024-03-23T09:31:08;14.60;99.90
21246;DHT22;10781;50.928;4.440;2024-03-23T09:33:35;13.90;99.90
21246;DHT22;10781;50.928;4.440;2024-03-23T09:36:04;14.50;99.90
21246;DHT22;10781;50.928;4.440;2024-03-23T09:38:30;13.90;99.90
21246;DHT22;10781;50.928;4.440;2024-03-23T09:40:57;13.60;99.90
21246;DHT22;10781;50.928;4.440;2024-03-23T09:43:22;14.10;99.90
21246;DHT22;10781;50.928;4.440;2024-03-23T09:45:49;15.20;99.90
21246;DHT22;10781;50.928;4.440;2024-03-23T09:48:15;16.50;99.90
21246;DHT22;10781;50.928;4.440;2024-03-23T09:50:42;16.20;99.90
21246;DHT22;10781;50.928;4.440;2024-03-23T09:53:13;14.70;99.90
21246;DHT22;10781;50.928;4.440;2024-03-23T09:55:40;14.30;99.90
21246;DHT22;10781;50.928;4.440;2024-03-23T09:58:06;15.30;99.90
21246;DHT22;10781;50.928;4.440;2024-03-23T10:00:32;16.10;99.90
21246;DHT22;10781;50.928;4.440;2024-03-23T10:02:59;15.50;99.90
21246;DHT22;10781;50.928;4.440;2024-03-23T10:05:28;15.70;99.90
21246;DHT22;10781;50.928;4.440;2024-03-23T10:07:53;16.00;99.90
21246;DHT22;10781;50.928;4.440;2024-03-23T10:10:19;15.50;99.90
21246;DHT22;10781;50.928;4.440;2024-03-23T10:12:48;14.50;99.90
21246;DHT22;10781;50.928;4.440;2024-03-23T10:15:20;15.80;99.90
21246;DHT22;10781;50.928;4.440;2024-03-23T10:17:46;15.20;99.90
21246;DHT22;10781;50.928;4.440;2024-03-23T10:20:12;14.20;99.90
21246;DHT22;10781;50.928;4.440;2024-03-23T10:22:39;14.10;99.90
21246;DHT22;10781;50.928;4.440;2024-03-23T10:25:09;14.10;99.90
21246;DHT22;10781;50.928;4.440;2024-03-23T10:27:35;14.30;99.90
21246;DHT22;10781;50.928;4.440;2024-03-23T10:30:13;14.10;99.90
21246;DHT22;10781;50.928;4.440;2024-03-23T10:32:42;13.60;99.90
21246;DHT22;10781;50.928;4.440;2024-03-23T10:35:19;13.20;99.90
21246;DHT22;10781;50.928;4.440;2024-03-23T10:37:48;13.90;99.90
21246;DHT22;10781;50.928;4.440;2024-03-23T10:40:17;13.90;99.90
21246;DHT22;10781;50.928;4.440;2024-03-23T10:42:44;15.00;99.90
21246;DHT22;10781;50.928;4.440;2024-03-23T10:45:10;16.00;99.90
21246;DHT22;10781;50.928;4.440;2024-03-23T10:47:37;17.30;99.90
21246;DHT22;10781;50.928;4.440;2024-03-23T10:50:06;17.80;99.90
21246;DHT22;10781;50.928;4.440;2024-03-23T10:52:35;18.70;99.90
21246;DHT22;10781;50.928;4.440;2024-03-23T10:55:05;19.00;99.50
21246;DHT22;10781;50.928;4.440;2024-03-23T10:57:41;19.30;98.40
21246;DHT22;10781;50.928;4.440;2024-03-23T11:00:08;19.70;96.70
21246;DHT22;10781;50.928;4.440;2024-03-23T11:02:36;18.90;94.80
21246;DHT22;10781;50.928;4.440;2024-03-23T11:05:01;17.60;95.60
21246;DHT22;10781;50.928;4.440;2024-03-23T11:07:28;16.40;97.70
21246;DHT22;10781;50.928;4.440;2024-03-23T11:09:54;16.00;99.90
21246;DHT22;10781;50.928;4.440;2024-03-23T11:17:22;17.60;99.40
21246;DHT22;10781;50.928;4.440;2024-03-23T11:19:59;17.50;97.70
21246;DHT22;10781;50.928;4.440;2024-03-23T11:22:38;17.30;96.40
21246;DHT22;10781;50.928;4.440;2024-03-23T11:27:39;17.60;94.50
21246;DHT22;10781;50.928;4.440;2024-03-23T11:32:37;17.80;94.70
21246;DHT22;10781;50.928;4.440;2024-03-23T11:35:03;15.30;99.90
21246;DHT22;10781;50.928;4.440;2024-03-23T11:37:29;13.80;99.90
21246;DHT22;10781;50.928;4.440;2024-03-23T11:39:54;13.20;99.90
21246;DHT22;10781;50.928;4.440;2024-03-23T11:42:20;13.40;99.90
21246;DHT22;10781;50.928;4.440;2024-03-23T11:44:47;13.80;99.90
21246;DHT22;10781;50.928;4.440;2024-03-23T11:47:13;14.40;99.90
21246;DHT22;10781;50.928;4.440;2024-03-23T11:49:38;15.50;99.90
21246;DHT22;10781;50.928;4.440;2024-03-23T11:52:06;15.60;99.90
21246;DHT22;10781;50.928;4.440;2024-03-23T11:54:32;15.90;99.90
21246;DHT22;10781;50.928;4.440;2024-03-23T11:57:04;16.30;99.90
21246;DHT22;10781;50.928;4.440;2024-03-23T11:59:40;16.90;99.90
21246;DHT22;10781;50.928;4.440;2024-03-23T12:02:07;16.60;99.90
21246;DHT22;10781;50.928;4.440;2024-03-23T12:04:33;16.60;99.90
21246;DHT22;10781;50.928;4.440;2024-03-23T12:07:18;17.60;99.90
21246;DHT22;10781;50.928;4.440;2024-03-23T12:10:05;16.20;99.90
21246;DHT22;10781;50.928;4.440;2024-03-23T12:12:33;15.60;99.90
21246;DHT22;10781;50.928;4.440;2024-03-23T12:15:04;14.70;99.90
21246;DHT22;10781;50.928;4.440;2024-03-23T12:17:31;14.80;99.90
21246;DHT22;10781;50.928;4.440;2024-03-23T12:19:57;14.40;99.90
21246;DHT22;10781;50.928;4.440;2024-03-23T12:22:23;13.70;99.90
21246;DHT22;10781;50.928;4.440;2024-03-23T12:24:49;13.10;99.90
21246;DHT22;10781;50.928;4.440;2024-03-23T12:27:15;13.50;99.90
21246;DHT22;10781;50.928;4.440;2024-03-23T12:29:41;14.40;99.90
21246;DHT22;10781;50.928;4.440;2024-03-23T12:32:09;15.40;99.90
21246;DHT22;10781;50.928;4.440;2024-03-23T12:34:34;15.90;99.90
21246;DHT22;10781;50.928;4.440;2024-03-23T12:37:00;17.00;99.90
21246;DHT22;10781;50.928;4.440;2024-03-23T12:39:26;17.10;97.70
21246;DHT22;10781;50.928;4.440;2024-03-23T12:41:52;17.40;96.30
21246;DHT22;10781;50.928;4.440;2024-03-23T12:44:20;18.20;96.00
21246;DHT22;10781;50.928;4.440;2024-03-23T12:46:46;18.30;93.80
21246;DHT22;10781;50.928;4.440;2024-03-23T12:49:12;19.10;93.70
21246;DHT22;10781;50.928;4.440;2024-03-23T12:51:38;18.70;92.00
21246;DHT22;10781;50.928;4.440;2024-03-23T12:54:03;18.50;92.60
21246;DHT22;10781;50.928;4.440;2024-03-23T12:56:29;18.30;92.60
21246;DHT22;10781;50.928;4.440;2024-03-23T12:58:55;17.80;92.20
21246;DHT22;10781;50.928;4.440;2024-03-23T13:01:23;17.60;92.00
21246;DHT22;10781;50.928;4.440;2024-03-23T13:03:49;17.80;91.40
21246;DHT22;10781;50.928;4.440;2024-03-23T13:06:16;18.20;91.90
21246;DHT22;10781;50.928;4.440;2024-03-23T13:08:47;18.50;91.50
21246;DHT22;10781;50.928;4.440;2024-03-23T13:11:15;19.20;90.80
21246;DHT22;10781;50.928;4.440;2024-03-23T13:13:41;18.00;90.60
21246;DHT22;10781;50.928;4.440;2024-03-23T13:16:07;16.70;93.10
21246;DHT22;10781;50.928;4.440;2024-03-23T13:18:33;14.80;97.70
21246;DHT22;10781;50.928;4.440;2024-03-23T13:20:59;13.60;99.90
21246;DHT22;10781;50.928;4.440;2024-03-23T13:23:25;13.10;99.90
21246;DHT22;10781;50.928;4.440;2024-03-23T13:25:52;13.10;99.90
21246;DHT22;10781;50.928;4.440;2024-03-23T13:28:21;12.90;99.90
21246;DHT22;10781;50.928;4.440;2024-03-23T13:30:55;13.10;99.90
21246;DHT22;10781;50.928;4.440;2024-03-23T13:33:21;13.10;99.90
21246;DHT22;10781;50.928;4.440;2024-03-23T13:35:54;12.80;99.90
21246;DHT22;10781;50.928;4.440;2024-03-23T13:38:20;13.20;99.90
21246;DHT22;10781;50.928;4.440;2024-03-23T13:40:53;13.60;99.90
21246;DHT22;10781;50.928;4.440;2024-03-23T13:43:20;14.30;99.90
21246;DHT22;10781;50.928;4.440;2024-03-23T13:45:47;15.00;99.90
21246;DHT22;10781;50.928;4.440;2024-03-23T13:48:14;15.00;99.90
21246;DHT22;10781;50.928;4.440;2024-03-23T13:50:40;14.40;99.90
21246;DHT22;10781;50.928;4.440;2024-03-23T13:53:05;14.20;99.90
21246;DHT22;10781;50.928;4.440;2024-03-23T13:55:31;13.80;99.90
21246;DHT22;10781;50.928;4.440;2024-03-23T13:57:57;13.30;99.90
21246;DHT22;10781;50.928;4.440;2024-03-23T14:00:23;13.30;99.90
21246;DHT22;10781;50.928;4.440;2024-03-23T14:02:49;13.00;99.90
21246;DHT22;10781;50.928;4.440;2024-03-23T14:05:14;12.30;99.90
21246;DHT22;10781;50.928;4.440;2024-03-23T14:07:40;11.90;99.90
21246;DHT22;10781;50.928;4.440;2024-03-23T14:10:06;11.20;99.90
21246;DHT22;10781;50.928;4.440;2024-03-23T14:12:32;10.70;99.90
21246;DHT22;10781;50.928;4.440;2024-03-23T14:14:58;10.40;99.90
21246;DHT22;10781;50.928;4.440;2024-03-23T14:17:23;10.30;99.90
21246;DHT22;10781;50.928;4.440;2024-03-23T14:19:49;11.00;99.90
21246;DHT22;10781;50.928;4.440;2024-03-23T14:22:15;11.50;99.90
21246;DHT22;10781;50.928;4.440;2024-03-23T14:24:44;11.80;99.90
21246;DHT22;10781;50.928;4.440;2024-03-23T14:27:10;12.60;99.90
21246;DHT22;10781;50.928;4.440;2024-03-23T14:29:36;13.80;99.90
21246;DHT22;10781;50.928;4.440;2024-03-23T14:32:01;15.20;99.90
21246;DHT22;10781;50.928;4.440;2024-03-23T14:34:27;16.20;99.90
21246;DHT22;10781;50.928;4.440;2024-03-23T14:36:55;17.00;99.90
21246;DHT22;10781;50.928;4.440;2024-03-23T14:39:24;17.40;99.90
21246;DHT22;10781;50.928;4.440;2024-03-23T14:41:50;17.90;99.90
21246;DHT22;10781;50.928;4.440;2024-03-23T14:44:16;17.70;99.90
21246;DHT22;10781;50.928;4.440;2024-03-23T14:46:42;17.30;99.90
21246;DHT22;10781;50.928;4.440;2024-03-23T14:49:08;16.60;99.90
21246;DHT22;10781;50.928;4.440;2024-03-23T14:51:34;15.60;99.90
21246;DHT22;10781;50.928;4.440;2024-03-23T14:54:00;15.40;99.90
21246;DHT22;10781;50.928;4.440;2024-03-23T14:56:25;14.90;99.90
21246;DHT22;10781;50.928;4.440;2024-03-23T14:58:54;15.20;99.90
21246;DHT22;10781;50.928;4.440;2024-03-23T15:01:21;15.60;99.90
21246;DHT22;10781;50.928;4.440;2024-03-23T15:03:47;16.80;99.90
21246;DHT22;10781;50.928;4.440;2024-03-23T15:06:13;17.70;99.90
21246;DHT22;10781;50.928;4.440;2024-03-23T15:08:39;17.50;99.90
21246;DHT22;10781;50.928;4.440;2024-03-23T15:11:06;17.80;99.90
21246;DHT22;10781;50.928;4.440;2024-03-23T15:13:35;17.50;99.90
21246;DHT22;10781;50.928;4.440;2024-03-23T15:16:02;17.00;99.90
21246;DHT22;10781;50.928;4.440;2024-03-23T15:18:32;16.60;99.90
21246;DHT22;10781;50.928;4.440;2024-03-23T15:20:59;16.70;99.90
21246;DHT22;10781;50.928;4.440;2024-03-23T15:23:29;17.00;99.90
21246;DHT22;10781;50.928;4.440;2024-03-23T15:26:04;17.80;99.90
21246;DHT22;10781;50.928;4.440;2024-03-23T15:28:31;18.60;99.50
21246;DHT22;10781;50.928;4.440;2024-03-23T15:31:09;18.70;95.70
21246;DHT22;10781;50.928;4.440;2024-03-23T15:33:35;18.50;94.60
21246;DHT22;10781;50.928;4.440;2024-03-23T15:36:05;18.00;95.00
21246;DHT22;10781;50.928;4.440;2024-03-23T15:38:34;17.90;94.20
21246;DHT22;10781;50.928;4.440;2024-03-23T15:41:00;17.80;94.30
21246;DHT22;10781;50.928;4.440;2024-03-23T15:43:26;18.20;93.70
21246;DHT22;10781;50.928;4.440;2024-03-23T15:45:59;18.70;92.30
21246;DHT22;10781;50.928;4.440;2024-03-23T15:48:26;18.80;93.40
21246;DHT22;10781;50.928;4.440;2024-03-23T15:51:10;18.60;91.60
21246;DHT22;10781;50.928;4.440;2024-03-23T15:53:36;18.50;91.50
21246;DHT22;10781;50.928;4.440;2024-03-23T15:56:03;18.10;91.40
21246;DHT22;10781;50.928;4.440;2024-03-23T15:58:30;17.30;92.20
21246;DHT22;10781;50.928;4.440;2024-03-23T16:03:22;16.30;94.50
21246;DHT22;10781;50.928;4.440;2024-03-23T16:05:52;15.70;96.50
21246;DHT22;10781;50.928;4.440;2024-03-23T16:08:17;15.10;97.60
21246;DHT22;10781;50.928;4.440;2024-03-23T16:10:43;14.70;98.40
21246;DHT22;10781;50.928;4.440;2024-03-23T16:13:08;14.40;99.60
21246;DHT22;10781;50.928;4.440;2024-03-23T16:15:34;14.50;99.90
21246;DHT22;10781;50.928;4.440;2024-03-23T16:17:59;14.40;99.90
21246;DHT22;10781;50.928;4.440;2024-03-23T16:20:25;14.10;99.90
21246;DHT22;10781;50.928;4.440;2024-03-23T16:22:51;14.00;99.90
21246;DHT22;10781;50.928;4.440;2024-03-23T16:25:16;14.00;99.90
21246;DHT22;10781;50.928;4.440;2024-03-23T16:27:42;13.80;99.90
21246;DHT22;10781;50.928;4.440;2024-03-23T16:30:08;13.70;99.90
21246;DHT22;10781;50.928;4.440;2024-03-23T16:32:35;13.50;99.90
21246;DHT22;10781;50.928;4.440;2024-03-23T16:35:03;13.50;99.90
21246;DHT22;10781;50.928;4.440;2024-03-23T16:37:29;13.60;99.90
21246;DHT22;10781;50.928;4.440;2024-03-23T16:39:54;13.60;99.90